createdAt,value
2022-11-05T00:01:55.283Z,100
2022-11-05T00:11:55.565Z,100
2022-11-05T00:21:56.270Z,100
2022-11-05T00:31:56.999Z,100
2022-11-05T00:41:57.488Z,100
2022-11-05T00:51:58.156Z,100
2022-11-05T01:01:58.429Z,100
2022-11-05T01:11:59.272Z,100
2022-11-05T01:32:00.440Z,100
2022-11-05T01:42:00.899Z,100
2022-11-05T01:52:01.598Z,100
2022-11-05T02:02:01.988Z,100
2022-11-05T02:12:02.025Z,100
2022-11-05T02:22:02.691Z,100
2022-11-05T02:32:03.239Z,100
2022-11-05T02:42:05.271Z,100
2022-11-05T02:52:04.772Z,100
2022-11-05T03:02:05.799Z,100
2022-11-05T03:12:06.045Z,100
2022-11-05T03:32:07.192Z,100
2022-11-05T03:42:07.300Z,100
2022-11-05T03:52:08.285Z,100
2022-11-05T04:02:08.894Z,100
2022-11-05T04:12:09.255Z,100
2022-11-05T04:22:09.798Z,100
2022-11-05T04:32:10.174Z,100
2022-11-05T04:42:11.015Z,100
2022-11-05T04:52:11.878Z,100
2022-11-05T05:02:12.297Z,100
2022-11-05T05:12:13.102Z,100
2022-11-05T05:22:13.463Z,100
2022-11-05T05:32:13.766Z,100
2022-11-05T05:42:14.399Z,100
2022-11-05T05:52:14.751Z,100
2022-11-05T06:02:14.905Z,100
2022-11-05T06:12:15.771Z,100
2022-11-05T06:22:15.987Z,100
2022-11-05T06:32:16.143Z,100
2022-11-05T06:42:18.905Z,100
2022-11-05T06:52:16.798Z,100
2022-11-05T07:02:17.491Z,100
2022-11-05T07:12:18.228Z,100
2022-11-05T07:22:18.905Z,100
2022-11-05T07:32:19.455Z,100
2022-11-05T07:42:19.887Z,100
2022-11-05T07:52:20.457Z,100
2022-11-05T08:02:21.272Z,100
2022-11-05T08:12:21.279Z,100
2022-11-05T08:22:21.610Z,100
2022-11-05T08:32:22.431Z,100
2022-11-05T08:42:22.943Z,99
2022-11-05T08:52:23.429Z,98
2022-11-05T09:02:24.205Z,97
2022-11-05T09:12:25.203Z,96
2022-11-05T09:22:25.628Z,95
2022-11-05T09:32:26.531Z,94
2022-11-05T09:42:27.393Z,93
2022-11-05T09:52:28.388Z,91
2022-11-05T10:02:28.918Z,90
2022-11-05T10:12:29.815Z,89
2022-11-05T10:22:30.373Z,88
2022-11-05T10:32:31.008Z,88
2022-11-05T10:42:31.328Z,88
2022-11-05T10:52:31.871Z,88
2022-11-05T11:02:32.821Z,87
2022-11-05T11:12:36.867Z,87
2022-11-05T11:22:34.446Z,87
2022-11-05T11:32:35.340Z,87
2022-11-05T11:52:37.336Z,87
2022-11-05T12:02:37.984Z,86
2022-11-05T12:12:38.541Z,85
2022-11-05T12:22:39.521Z,86
2022-11-05T12:32:39.756Z,87
2022-11-05T12:42:39.795Z,87
2022-11-05T12:52:39.934Z,87
2022-11-05T13:12:41.472Z,87
2022-11-05T13:22:42.206Z,87
2022-11-05T13:32:43.058Z,87
2022-11-05T13:42:44.006Z,87
2022-11-05T13:52:44.097Z,87
2022-11-05T14:02:44.382Z,87
2022-11-05T14:12:45.241Z,87
2022-11-05T14:22:45.847Z,87
2022-11-05T14:32:46.751Z,87
2022-11-05T14:42:47.529Z,87
2022-11-05T14:52:48.518Z,87
2022-11-05T15:02:49.185Z,87
2022-11-05T15:12:49.273Z,87
2022-11-05T15:22:50.047Z,87
2022-11-05T15:32:50.759Z,87
2022-11-05T15:42:51.251Z,87
2022-11-05T15:52:51.953Z,87
2022-11-05T15:53:36.182Z,87
2022-11-05T16:02:58.097Z,87
2022-11-05T16:12:58.746Z,87
2022-11-05T16:22:59.773Z,87
2022-11-05T16:33:00.418Z,87
2022-11-05T16:53:02.021Z,87
2022-11-05T17:03:03.042Z,87
2022-11-05T17:13:03.408Z,87
2022-11-05T17:23:03.909Z,87
2022-11-05T17:33:04.403Z,87
2022-11-05T17:43:05.072Z,87
2022-11-05T17:53:05.877Z,87
2022-11-05T18:03:06.077Z,87
2022-11-05T18:13:06.436Z,87
2022-11-05T18:23:07.465Z,87
2022-11-05T18:33:08.561Z,87
2022-11-05T18:43:09.208Z,87
2022-11-05T18:53:09.641Z,87
2022-11-05T19:03:10.004Z,87
2022-11-05T19:13:10.328Z,87
2022-11-05T19:23:10.829Z,87
2022-11-05T19:33:11.643Z,87
2022-11-05T19:43:12.054Z,87
2022-11-05T19:53:12.229Z,88
2022-11-05T20:03:12.473Z,88
2022-11-05T20:13:17.074Z,88
2022-11-05T20:23:14.044Z,88
2022-11-05T20:33:14.750Z,88
2022-11-05T20:43:15.096Z,88
2022-11-05T20:53:15.608Z,88
2022-11-05T21:03:16.172Z,88
2022-11-05T21:13:16.806Z,88
2022-11-05T21:23:17.067Z,88
2022-11-05T21:33:17.728Z,88
2022-11-05T21:43:18.240Z,88
2022-11-05T21:53:18.605Z,88
2022-11-05T22:03:19.437Z,88
2022-11-05T22:13:19.849Z,88
2022-11-05T22:23:20.283Z,89
2022-11-05T22:33:20.896Z,89
2022-11-05T22:53:21.425Z,89
2022-11-05T23:03:21.977Z,89
2022-11-05T23:13:22.395Z,90
2022-11-05T23:23:22.676Z,90
2022-11-05T23:33:23.084Z,91
2022-11-05T23:43:23.361Z,91
2022-11-05T23:53:23.623Z,90
